LAX weather

Los Angeles International Airport
Los Angeles, California, United States

Public forecast

Using degrees Fahrenheit for public forecast. Weather courtesy of forecast.io.

METAR (pilot weather report)

Retrieved 2018/04/26 19:53 UTC (44 minutes ago):

KLAX 261953Z 27010KT 10SM CLR 18/11 A3003 RMK AO2 SLP170 T01780106

TAF (pilot weather forecast)

Retrieved 2018/04/26 18:46 UTC (2 hours ago):

TAF KLAX 261744Z 2618/2724 25007KT P6SM BKN018 FM262100 26012KT P6SM SCT020 FM270200 26010KT P6SM OVC015 FM270800 VRB03KT P6SM OVC020 FM271700 26007KT P6SM OVC025 FM271900 26012KT P6SM SCT027